createdAt,value
2017-08-18T00:00:13.269Z,21.20
2017-08-18T00:01:13.262Z,21.21
2017-08-18T00:02:13.276Z,21.20
2017-08-18T00:03:13.292Z,21.11
2017-08-18T00:04:13.312Z,21.13
2017-08-18T00:05:13.328Z,21.11
2017-08-18T00:06:13.350Z,21.06
2017-08-18T00:07:13.363Z,21.04
2017-08-18T00:08:13.381Z,21.05
2017-08-18T00:09:13.399Z,21.05
2017-08-18T00:10:13.415Z,21.13
2017-08-18T00:11:13.433Z,21.19
2017-08-18T00:12:13.452Z,21.14
2017-08-18T00:13:13.467Z,21.13
2017-08-18T00:14:13.484Z,21.01
2017-08-18T00:15:13.500Z,20.99
2017-08-18T00:16:13.520Z,21.04
2017-08-18T00:17:13.535Z,21.01
2017-08-18T00:18:13.553Z,21.04
2017-08-18T00:19:13.570Z,21.14
2017-08-18T00:20:13.593Z,20.99
2017-08-18T00:21:13.604Z,21.01
2017-08-18T00:22:13.622Z,21.02
2017-08-18T00:23:13.639Z,21.01
2017-08-18T00:24:13.655Z,20.90
2017-08-18T00:25:13.673Z,21.05
2017-08-18T00:26:13.692Z,20.95
2017-08-18T00:27:13.708Z,20.96
2017-08-18T00:28:13.725Z,21.02
2017-08-18T00:29:13.743Z,21.05
2017-08-18T00:30:13.762Z,20.89
2017-08-18T00:31:13.775Z,21.05
2017-08-18T00:32:13.794Z,20.91
2017-08-18T00:33:13.810Z,20.99
2017-08-18T00:34:13.826Z,21.09
2017-08-18T00:35:13.841Z,20.99
2017-08-18T00:36:13.863Z,20.99
2017-08-18T00:37:13.878Z,20.93
2017-08-18T00:38:13.897Z,20.98
2017-08-18T00:39:13.910Z,20.81
2017-08-18T00:40:13.931Z,20.87
2017-08-18T00:41:13.947Z,20.86
2017-08-18T00:42:13.963Z,20.83
2017-08-18T00:43:13.981Z,20.89
2017-08-18T00:44:14.000Z,20.90
2017-08-18T00:45:14.015Z,20.90
2017-08-18T00:46:14.034Z,20.90
2017-08-18T00:47:14.048Z,20.93
2017-08-18T00:48:14.071Z,20.84
2017-08-18T00:49:14.085Z,20.90
2017-08-18T00:50:14.101Z,20.87
2017-08-18T00:51:14.119Z,20.96
2017-08-18T00:52:14.138Z,20.83
2017-08-18T00:53:14.152Z,20.86
2017-08-18T00:54:14.171Z,20.87
2017-08-18T00:55:14.184Z,20.80
2017-08-18T00:56:14.202Z,20.80
2017-08-18T00:57:14.221Z,20.87
2017-08-18T00:58:14.240Z,20.71
2017-08-18T00:59:14.255Z,20.69
2017-08-18T01:00:14.273Z,20.71
2017-08-18T01:01:14.291Z,20.76
2017-08-18T01:02:14.304Z,20.71
2017-08-18T01:03:14.321Z,20.66
2017-08-18T01:04:14.341Z,20.71
2017-08-18T01:05:14.358Z,20.76
2017-08-18T01:06:14.375Z,20.68
2017-08-18T01:07:14.391Z,20.58
2017-08-18T01:08:14.411Z,20.62
2017-08-18T01:09:14.425Z,20.61
2017-08-18T01:10:14.441Z,20.62
2017-08-18T01:11:14.459Z,20.56
2017-08-18T01:12:14.475Z,20.54
2017-08-18T01:13:14.491Z,20.51
2017-08-18T01:14:14.508Z,20.53
2017-08-18T01:15:14.525Z,20.53
2017-08-18T01:16:14.544Z,20.50
2017-08-18T01:17:14.557Z,20.47
2017-08-18T01:18:14.574Z,20.50
2017-08-18T01:19:14.593Z,20.49
2017-08-18T01:20:14.610Z,20.42
2017-08-18T01:21:14.628Z,20.46
2017-08-18T01:22:14.646Z,20.47
2017-08-18T01:23:14.659Z,20.43
2017-08-18T01:24:14.677Z,20.43
2017-08-18T01:25:14.694Z,20.47
2017-08-18T01:26:14.711Z,20.50
2017-08-18T01:27:14.726Z,20.49
2017-08-18T01:28:14.745Z,20.47
2017-08-18T01:29:14.760Z,20.41
2017-08-18T01:30:14.778Z,20.46
2017-08-18T01:31:14.796Z,20.39
2017-08-18T01:32:14.812Z,20.41
2017-08-18T01:33:14.828Z,20.34
2017-08-18T01:34:14.844Z,20.31
2017-08-18T01:35:14.863Z,20.38
2017-08-18T01:36:14.879Z,20.34
2017-08-18T01:37:14.894Z,20.39
2017-08-18T01:38:14.912Z,20.25
2017-08-18T01:39:14.928Z,20.23
2017-08-18T01:40:14.946Z,20.25
2017-08-18T01:41:14.964Z,20.24
2017-08-18T01:42:14.979Z,20.24
2017-08-18T01:43:14.995Z,20.16
2017-08-18T01:44:15.013Z,20.18
2017-08-18T01:45:15.032Z,20.20
2017-08-18T01:46:15.045Z,20.16
2017-08-18T01:47:15.061Z,20.15
2017-08-18T01:48:15.080Z,20.21
2017-08-18T01:49:15.103Z,20.08
2017-08-18T01:50:15.112Z,20.16
2017-08-18T01:51:15.128Z,20.06
2017-08-18T01:52:15.147Z,20.18
2017-08-18T01:53:15.161Z,20.05
2017-08-18T01:54:15.178Z,20.08
2017-08-18T01:55:15.194Z,20.08
2017-08-18T01:56:15.213Z,20.06
2017-08-18T01:57:15.228Z,20.05
2017-08-18T01:58:15.249Z,20.06
2017-08-18T01:59:15.261Z,20.08
2017-08-18T02:00:15.292Z,20.08
2017-08-18T02:01:15.295Z,20.08
2017-08-18T02:02:15.311Z,20.16
2017-08-18T02:03:15.328Z,20.16
2017-08-18T02:04:15.348Z,20.06
2017-08-18T02:05:15.361Z,20.12
2017-08-18T02:06:15.377Z,20.06
2017-08-18T02:07:15.412Z,20.12
2017-08-18T02:08:15.413Z,20.06
2017-08-18T02:09:15.427Z,20.06
2017-08-18T02:10:15.445Z,20.18
2017-08-18T02:11:15.461Z,20.08
2017-08-18T02:12:15.480Z,20.02
2017-08-18T02:13:15.494Z,20.06
2017-08-18T02:14:15.512Z,20.08
2017-08-18T02:15:15.528Z,20.13
2017-08-18T02:16:15.544Z,20.09
2017-08-18T02:17:15.563Z,20.05
2017-08-18T02:18:15.577Z,20.12
2017-08-18T02:19:15.611Z,20.02
2017-08-18T02:20:15.612Z,20.06
2017-08-18T02:21:15.631Z,20.09
2017-08-18T02:22:15.644Z,20.02
2017-08-18T02:23:15.659Z,20.06
2017-08-18T02:24:15.687Z,20.12
2017-08-18T02:25:15.691Z,20.08
2017-08-18T02:26:15.710Z,20.02
2017-08-18T02:27:15.724Z,20.03
2017-08-18T02:28:15.743Z,20.08
2017-08-18T02:29:15.763Z,20.05
2017-08-18T02:30:15.775Z,20.08
2017-08-18T02:31:15.789Z,20.10
2017-08-18T02:32:15.808Z,20.00
2017-08-18T02:33:15.824Z,20.06
2017-08-18T02:34:15.839Z,20.10
2017-08-18T02:35:15.858Z,20.08
2017-08-18T02:36:15.874Z,20.08
2017-08-18T02:37:15.890Z,20.09
2017-08-18T02:38:15.907Z,20.06
2017-08-18T02:39:15.924Z,20.08
2017-08-18T02:40:15.942Z,20.06
2017-08-18T02:41:15.956Z,20.16
2017-08-18T02:42:15.975Z,20.10
2017-08-18T02:43:15.991Z,20.08
2017-08-18T02:44:16.006Z,20.12
2017-08-18T02:45:16.022Z,20.05
2017-08-18T02:46:16.040Z,20.06
2017-08-18T02:47:16.054Z,20.10
2017-08-18T02:48:16.074Z,20.09
2017-08-18T02:49:16.088Z,20.05
2017-08-18T02:50:16.107Z,20.06
2017-08-18T02:51:16.121Z,20.05
2017-08-18T02:52:16.142Z,20.00
2017-08-18T02:53:16.154Z,20.02
2017-08-18T02:54:16.171Z,19.97
2017-08-18T02:55:16.188Z,20.05
2017-08-18T02:56:16.204Z,19.94
2017-08-18T02:57:16.220Z,19.93
2017-08-18T02:58:16.237Z,19.91
2017-08-18T02:59:16.253Z,19.94
2017-08-18T03:00:16.273Z,19.97
2017-08-18T03:01:16.294Z,19.91
2017-08-18T03:02:16.303Z,19.95
2017-08-18T03:03:16.321Z,19.93
2017-08-18T03:04:16.338Z,19.88
2017-08-18T03:05:16.353Z,19.93
2017-08-18T03:06:16.369Z,19.91
2017-08-18T03:07:16.387Z,19.87
2017-08-18T03:08:16.402Z,19.93
2017-08-18T03:09:16.419Z,19.90
2017-08-18T03:10:16.435Z,19.86
2017-08-18T03:11:16.451Z,19.80
2017-08-18T03:12:16.468Z,19.80
2017-08-18T03:13:16.484Z,19.73
2017-08-18T03:14:16.502Z,19.76
2017-08-18T03:15:16.517Z,19.78
2017-08-18T03:16:16.535Z,19.78
2017-08-18T03:17:16.549Z,19.78
2017-08-18T03:18:16.565Z,19.80
2017-08-18T03:19:16.585Z,19.79
2017-08-18T03:20:16.601Z,19.79
2017-08-18T03:21:16.616Z,19.75
2017-08-18T03:22:16.632Z,19.73
2017-08-18T03:23:16.648Z,19.76
2017-08-18T03:24:16.673Z,19.78
2017-08-18T03:25:16.684Z,19.73
2017-08-18T03:26:16.700Z,19.76
2017-08-18T03:27:16.717Z,19.63
2017-08-18T03:28:16.730Z,19.80
2017-08-18T03:29:16.748Z,19.72
2017-08-18T03:30:16.765Z,19.66
2017-08-18T03:31:16.778Z,19.75
2017-08-18T03:32:16.797Z,19.72
2017-08-18T03:33:16.828Z,19.79
2017-08-18T03:34:16.828Z,19.75
2017-08-18T03:35:16.845Z,19.68
2017-08-18T03:36:16.861Z,19.68
2017-08-18T03:37:16.877Z,19.78
2017-08-18T03:38:16.896Z,19.65
2017-08-18T03:39:16.911Z,19.75
2017-08-18T03:40:16.928Z,19.72
2017-08-18T03:41:16.945Z,19.73
2017-08-18T03:42:16.961Z,19.76
2017-08-18T03:43:16.975Z,19.75
2017-08-18T03:44:16.993Z,19.61
2017-08-18T03:45:17.009Z,19.69
2017-08-18T03:46:17.026Z,19.69
2017-08-18T03:47:17.043Z,19.70
2017-08-18T03:48:17.060Z,19.70
2017-08-18T03:49:17.076Z,19.69
2017-08-18T03:50:17.098Z,19.68
2017-08-18T03:51:17.105Z,19.68
2017-08-18T03:52:17.124Z,19.66
2017-08-18T03:53:17.140Z,19.55
2017-08-18T03:54:17.157Z,19.60
2017-08-18T03:55:17.172Z,19.54
2017-08-18T03:56:17.188Z,19.60
2017-08-18T03:57:17.207Z,19.63
2017-08-18T03:58:17.222Z,19.53
2017-08-18T03:59:17.238Z,19.51
2017-08-18T04:00:17.255Z,19.66
2017-08-18T04:01:17.272Z,19.58
2017-08-18T04:02:17.287Z,19.47
2017-08-18T04:03:17.304Z,19.51
2017-08-18T04:04:17.320Z,19.48
2017-08-18T04:05:17.338Z,19.54
2017-08-18T04:06:17.351Z,19.53
2017-08-18T04:07:17.368Z,19.50
2017-08-18T04:08:17.386Z,19.43
2017-08-18T04:09:17.400Z,19.57
2017-08-18T04:10:17.417Z,19.50
2017-08-18T04:11:17.433Z,19.55
2017-08-18T04:12:17.453Z,19.50
2017-08-18T04:13:17.465Z,19.50
2017-08-18T04:14:17.484Z,19.51
2017-08-18T04:15:17.498Z,19.51
2017-08-18T04:16:17.515Z,19.48
2017-08-18T04:17:17.531Z,19.66
2017-08-18T04:18:17.549Z,19.63
2017-08-18T04:19:17.563Z,19.60
2017-08-18T04:20:17.582Z,19.60
2017-08-18T04:21:17.596Z,19.53
2017-08-18T04:22:17.613Z,19.65
2017-08-18T04:23:17.629Z,19.69
2017-08-18T04:24:17.646Z,19.57
2017-08-18T04:25:17.662Z,19.73
2017-08-18T04:26:17.677Z,19.70
2017-08-18T04:27:17.694Z,19.68
2017-08-18T04:28:17.712Z,19.69
2017-08-18T04:29:17.726Z,19.68
2017-08-18T04:30:17.744Z,19.68
2017-08-18T04:31:17.759Z,19.70
2017-08-18T04:32:17.777Z,19.65
2017-08-18T04:33:17.810Z,19.72
2017-08-18T04:34:17.808Z,19.68
2017-08-18T04:35:17.825Z,19.68
2017-08-18T04:36:17.843Z,19.65
2017-08-18T04:37:17.868Z,19.69
2017-08-18T04:38:17.873Z,19.68
2017-08-18T04:39:17.889Z,19.68
2017-08-18T04:40:17.910Z,19.73
2017-08-18T04:41:17.922Z,19.68
2017-08-18T04:42:17.940Z,19.75
2017-08-18T04:43:17.956Z,19.76
2017-08-18T04:44:17.976Z,19.73
2017-08-18T04:45:17.989Z,19.75
2017-08-18T04:46:18.005Z,19.78
2017-08-18T04:47:18.022Z,19.84
2017-08-18T04:48:18.039Z,19.93
2017-08-18T04:49:18.057Z,19.93
2017-08-18T04:50:18.071Z,19.97
2017-08-18T04:51:18.086Z,20.08
2017-08-18T04:52:18.105Z,20.03
2017-08-18T04:53:18.121Z,20.23
2017-08-18T04:54:18.138Z,20.30
2017-08-18T04:55:18.152Z,20.35
2017-08-18T04:56:18.170Z,20.42
2017-08-18T04:57:18.189Z,20.58
2017-08-18T04:58:18.204Z,20.61
2017-08-18T04:59:18.220Z,20.74
2017-08-18T05:00:18.238Z,20.81
2017-08-18T05:01:18.254Z,20.79
2017-08-18T05:02:18.272Z,20.89
2017-08-18T05:03:18.290Z,20.93
2017-08-18T05:04:18.306Z,20.99
2017-08-18T05:05:18.322Z,20.98
2017-08-18T05:06:18.338Z,21.05
2017-08-18T05:07:18.355Z,21.04
2017-08-18T05:08:18.372Z,21.11
2017-08-18T05:09:18.391Z,21.14
2017-08-18T05:10:18.405Z,21.16
2017-08-18T05:11:18.424Z,21.20
2017-08-18T05:12:18.440Z,21.16
2017-08-18T05:13:18.458Z,21.29
2017-08-18T05:14:18.474Z,21.36
2017-08-18T05:15:18.490Z,21.36
2017-08-18T05:16:18.508Z,21.45
2017-08-18T05:17:18.526Z,21.48
2017-08-18T05:18:18.543Z,21.46
2017-08-18T05:19:18.558Z,21.48
2017-08-18T05:20:18.575Z,21.57
2017-08-18T05:21:18.602Z,21.56
2017-08-18T05:22:18.610Z,21.67
2017-08-18T05:23:18.628Z,21.75
2017-08-18T05:24:18.648Z,21.79
2017-08-18T05:25:18.662Z,21.74
2017-08-18T05:26:18.680Z,21.88
2017-08-18T05:27:18.695Z,21.94
2017-08-18T05:28:18.717Z,21.95
2017-08-18T05:29:18.734Z,21.99
2017-08-18T05:30:18.746Z,22.06
2017-08-18T05:31:18.765Z,22.25
2017-08-18T05:32:18.786Z,22.19
2017-08-18T05:33:18.801Z,22.27
2017-08-18T05:34:18.820Z,22.34
2017-08-18T05:35:18.835Z,22.32
2017-08-18T05:36:18.853Z,22.49
2017-08-18T05:37:18.870Z,22.54
2017-08-18T05:38:18.888Z,22.56
2017-08-18T05:39:18.905Z,22.65
2017-08-18T05:40:18.924Z,22.67
2017-08-18T05:41:18.942Z,22.69
2017-08-18T05:42:18.959Z,22.68
2017-08-18T05:43:18.976Z,22.68
2017-08-18T05:44:18.996Z,22.87
2017-08-18T05:45:19.012Z,22.90
2017-08-18T05:46:19.031Z,23.01
2017-08-18T05:47:19.046Z,23.07
2017-08-18T05:48:19.066Z,23.08
2017-08-18T05:49:19.086Z,23.17
2017-08-18T05:50:19.103Z,23.20
2017-08-18T05:51:19.120Z,23.20
2017-08-18T05:52:19.139Z,23.31
2017-08-18T05:53:19.157Z,23.26
2017-08-18T05:54:19.175Z,23.39
2017-08-18T05:55:19.192Z,23.38
2017-08-18T05:56:19.213Z,23.39
2017-08-18T05:57:19.228Z,23.53
2017-08-18T05:58:19.252Z,23.50
2017-08-18T05:59:19.263Z,23.49
2017-08-18T06:00:19.284Z,23.50
2017-08-18T06:01:19.301Z,23.53
2017-08-18T06:02:19.319Z,23.60
2017-08-18T06:03:19.338Z,23.62
2017-08-18T06:04:19.356Z,23.83
2017-08-18T06:05:19.373Z,23.89
2017-08-18T06:06:19.392Z,23.98
2017-08-18T06:07:19.408Z,24.05
2017-08-18T06:08:19.428Z,24.12
2017-08-18T06:09:19.447Z,24.16
2017-08-18T06:10:19.465Z,24.17
2017-08-18T06:11:19.484Z,24.24
2017-08-18T06:12:19.502Z,24.22
2017-08-18T06:13:19.521Z,24.24
2017-08-18T06:14:19.539Z,24.35
2017-08-18T06:15:19.557Z,24.41
2017-08-18T06:16:19.576Z,24.44
2017-08-18T06:17:19.598Z,24.64
2017-08-18T06:18:19.613Z,24.71
2017-08-18T06:19:19.631Z,24.85
2017-08-18T06:20:19.650Z,24.87
2017-08-18T06:21:19.668Z,25.00
2017-08-18T06:22:19.687Z,25.00
2017-08-18T06:23:19.709Z,25.16
2017-08-18T06:24:19.727Z,25.12
2017-08-18T06:25:19.742Z,25.16
2017-08-18T06:26:19.765Z,25.17
2017-08-18T06:27:19.781Z,25.17
2017-08-18T06:28:19.802Z,25.19
2017-08-18T06:29:19.818Z,25.19
2017-08-18T06:30:19.841Z,25.30
2017-08-18T06:31:19.858Z,25.38
2017-08-18T06:32:19.879Z,25.59
2017-08-18T06:33:19.896Z,25.64
2017-08-18T06:34:19.917Z,25.89
2017-08-18T06:35:19.933Z,26.05
2017-08-18T06:36:19.953Z,26.11
2017-08-18T06:37:19.976Z,26.32
2017-08-18T06:38:19.993Z,26.40
2017-08-18T06:39:20.010Z,26.57
2017-08-18T06:40:20.031Z,26.92
2017-08-18T06:41:20.050Z,27.33
2017-08-18T06:42:20.069Z,27.71
2017-08-18T06:43:20.088Z,28.17
2017-08-18T06:44:20.112Z,28.69
2017-08-18T06:45:20.129Z,28.88
2017-08-18T06:46:20.150Z,29.16
2017-08-18T06:47:20.168Z,29.31
2017-08-18T06:48:20.191Z,29.53
2017-08-18T06:49:20.210Z,29.72
2017-08-18T06:50:20.232Z,29.66
2017-08-18T06:51:20.252Z,29.70
2017-08-18T06:52:20.272Z,29.70
2017-08-18T06:53:20.294Z,29.71
2017-08-18T06:54:20.315Z,29.70
2017-08-18T06:55:20.335Z,29.65
2017-08-18T06:56:20.356Z,29.68
2017-08-18T06:57:20.379Z,29.55
2017-08-18T06:58:20.398Z,29.59
2017-08-18T06:59:20.427Z,29.57
2017-08-18T07:00:20.439Z,29.53
2017-08-18T07:01:20.464Z,29.60
2017-08-18T07:02:20.484Z,29.53
2017-08-18T07:03:20.516Z,29.38
2017-08-18T07:04:20.525Z,29.31
2017-08-18T07:05:20.544Z,29.18
2017-08-18T07:06:20.564Z,29.03
2017-08-18T07:07:20.586Z,28.91
2017-08-18T07:08:20.606Z,28.77
2017-08-18T07:09:20.631Z,28.69
2017-08-18T07:10:20.650Z,28.53
2017-08-18T07:11:20.669Z,28.43
2017-08-18T07:12:20.691Z,28.36
2017-08-18T07:13:20.710Z,28.23
2017-08-18T07:14:20.732Z,28.17
2017-08-18T07:15:20.750Z,28.06
2017-08-18T07:16:20.773Z,28.01
2017-08-18T07:17:20.793Z,27.98
2017-08-18T07:18:20.813Z,27.91
2017-08-18T07:19:20.836Z,27.82
2017-08-18T07:20:20.858Z,27.77
2017-08-18T07:21:20.875Z,27.62
2017-08-18T07:22:20.896Z,27.59
2017-08-18T07:23:20.916Z,27.67
2017-08-18T07:24:20.936Z,27.64
2017-08-18T07:25:20.949Z,27.67
2017-08-18T07:26:20.976Z,27.76
2017-08-18T07:27:20.995Z,27.82
2017-08-18T07:28:21.018Z,27.86
2017-08-18T07:29:21.037Z,27.92
2017-08-18T07:30:21.057Z,27.84
2017-08-18T07:31:21.078Z,27.89
2017-08-18T07:32:21.100Z,27.86
2017-08-18T07:33:21.119Z,27.88
2017-08-18T07:34:21.139Z,27.82
2017-08-18T07:35:21.159Z,27.88
2017-08-18T07:36:21.180Z,27.91
2017-08-18T07:37:21.198Z,27.88
2017-08-18T07:38:21.220Z,27.92
2017-08-18T07:39:21.238Z,27.96
2017-08-18T07:40:21.261Z,27.99
2017-08-18T07:41:21.286Z,28.01
2017-08-18T07:42:21.300Z,27.98
2017-08-18T07:43:21.320Z,28.03
2017-08-18T07:44:21.340Z,28.16
2017-08-18T07:45:21.361Z,28.25
2017-08-18T07:46:21.382Z,28.29
2017-08-18T07:47:21.404Z,28.46
2017-08-18T07:48:21.421Z,28.44
2017-08-18T07:49:21.443Z,28.43
2017-08-18T07:50:21.465Z,28.50
2017-08-18T07:51:21.481Z,28.51
2017-08-18T07:52:21.502Z,28.59
2017-08-18T07:53:21.524Z,28.56
2017-08-18T07:54:21.542Z,28.58
2017-08-18T07:55:21.565Z,28.68
2017-08-18T07:56:21.587Z,28.68
2017-08-18T07:57:21.604Z,28.84
2017-08-18T07:58:21.626Z,29.13
2017-08-18T07:59:21.647Z,29.18
2017-08-18T08:00:21.669Z,29.43
2017-08-18T08:01:21.690Z,29.65
2017-08-18T08:02:21.712Z,29.71
2017-08-18T08:03:21.731Z,29.66
2017-08-18T08:04:21.753Z,29.56
2017-08-18T08:05:21.777Z,29.57
2017-08-18T08:06:21.795Z,29.37
2017-08-18T08:07:21.817Z,29.35
2017-08-18T08:08:21.839Z,29.33
2017-08-18T08:09:21.862Z,29.26
2017-08-18T08:10:21.881Z,29.25
2017-08-18T08:11:21.903Z,29.29
2017-08-18T08:12:21.925Z,29.31
2017-08-18T08:13:21.945Z,29.41
2017-08-18T08:14:21.968Z,29.41
2017-08-18T08:15:21.989Z,29.31
2017-08-18T08:16:22.012Z,29.25
2017-08-18T08:17:22.037Z,29.22
2017-08-18T08:18:22.053Z,29.19
2017-08-18T08:19:22.075Z,29.10
2017-08-18T08:20:22.096Z,29.08
2017-08-18T08:21:22.117Z,29.08
2017-08-18T08:22:22.138Z,28.95
2017-08-18T08:23:22.164Z,29.11
2017-08-18T08:24:22.184Z,29.03
2017-08-18T08:25:22.202Z,29.03
2017-08-18T08:26:22.223Z,28.95
2017-08-18T08:27:22.243Z,29.00
2017-08-18T08:28:22.266Z,28.90
2017-08-18T08:29:22.285Z,28.95
2017-08-18T08:30:22.306Z,29.00
2017-08-18T08:31:22.327Z,28.96
2017-08-18T08:32:22.349Z,28.97
2017-08-18T08:33:22.370Z,28.97
2017-08-18T08:34:22.395Z,29.00
2017-08-18T08:35:22.412Z,28.91
2017-08-18T08:36:22.434Z,29.04
2017-08-18T08:37:22.456Z,29.04
2017-08-18T08:38:22.476Z,29.01
2017-08-18T08:39:22.496Z,29.06
2017-08-18T08:40:22.521Z,29.20
2017-08-18T08:41:22.540Z,29.11
2017-08-18T08:42:22.566Z,29.22
2017-08-18T08:43:22.581Z,29.19
2017-08-18T08:44:22.604Z,29.31
2017-08-18T08:45:22.626Z,29.50
2017-08-18T08:46:22.646Z,29.65
2017-08-18T08:47:22.664Z,29.71
2017-08-18T08:48:22.688Z,29.89
2017-08-18T08:49:22.708Z,29.94
2017-08-18T08:50:22.730Z,30.00
2017-08-18T08:51:22.749Z,30.12
2017-08-18T08:52:22.772Z,30.23
2017-08-18T08:53:22.793Z,30.34
2017-08-18T08:54:22.814Z,30.47
2017-08-18T08:55:22.835Z,30.56
2017-08-18T08:56:22.861Z,30.65
2017-08-18T08:57:22.878Z,30.64
2017-08-18T08:58:22.902Z,30.84
2017-08-18T08:59:22.922Z,30.93
2017-08-18T09:00:22.944Z,30.96
2017-08-18T09:01:22.964Z,31.01
2017-08-18T09:02:22.988Z,31.04
2017-08-18T09:03:23.009Z,31.01
2017-08-18T09:04:23.032Z,30.96
2017-08-18T09:05:23.051Z,30.89
2017-08-18T09:06:23.073Z,30.90
2017-08-18T09:07:23.093Z,30.87
2017-08-18T09:08:23.115Z,30.83
2017-08-18T09:09:23.139Z,30.90
2017-08-18T09:10:23.159Z,30.83
2017-08-18T09:11:23.181Z,30.75
2017-08-18T09:12:23.204Z,30.81
2017-08-18T09:13:23.224Z,30.83
2017-08-18T09:14:23.248Z,30.62
2017-08-18T09:15:23.278Z,30.67
2017-08-18T09:16:23.288Z,30.57
2017-08-18T09:17:23.310Z,30.50
2017-08-18T09:18:23.330Z,30.62
2017-08-18T09:19:23.358Z,30.46
2017-08-18T09:20:23.376Z,30.43
2017-08-18T09:21:23.397Z,30.46
2017-08-18T09:22:23.417Z,30.43
2017-08-18T09:23:23.437Z,30.49
2017-08-18T09:24:23.460Z,30.46
2017-08-18T09:25:23.481Z,30.46
2017-08-18T09:26:23.502Z,30.43
2017-08-18T09:27:23.523Z,30.40
2017-08-18T09:28:23.545Z,30.31
2017-08-18T09:29:23.567Z,30.30
2017-08-18T09:30:23.587Z,30.23
2017-08-18T09:31:23.608Z,30.23
2017-08-18T09:32:23.633Z,30.15
2017-08-18T09:33:23.652Z,30.15
2017-08-18T09:34:23.673Z,30.11
2017-08-18T09:35:23.692Z,29.97
2017-08-18T09:36:23.715Z,30.00
2017-08-18T09:37:23.736Z,29.89
2017-08-18T09:38:23.760Z,29.87
2017-08-18T09:39:23.777Z,29.71
2017-08-18T09:40:23.805Z,29.78
2017-08-18T09:41:23.823Z,29.65
2017-08-18T09:42:23.842Z,29.60
2017-08-18T09:43:23.861Z,29.55
2017-08-18T09:44:23.884Z,29.52
2017-08-18T09:45:23.903Z,29.41
2017-08-18T09:46:23.925Z,29.40
2017-08-18T09:47:23.945Z,29.33
2017-08-18T09:48:23.966Z,29.31
2017-08-18T09:49:23.989Z,29.18
2017-08-18T09:50:24.006Z,29.16
2017-08-18T09:51:24.028Z,29.16
2017-08-18T09:52:24.054Z,29.11
2017-08-18T09:53:24.070Z,29.11
2017-08-18T09:54:24.090Z,29.08
2017-08-18T09:55:24.109Z,29.11
2017-08-18T09:56:24.131Z,29.10
2017-08-18T09:57:24.151Z,29.03
2017-08-18T09:58:24.172Z,28.97
2017-08-18T09:59:24.192Z,29.00
2017-08-18T10:00:24.214Z,28.96
2017-08-18T10:01:24.234Z,29.04
2017-08-18T10:02:24.255Z,29.03
2017-08-18T10:03:24.275Z,29.15
2017-08-18T10:04:24.297Z,29.10
2017-08-18T10:05:24.316Z,29.16
2017-08-18T10:06:24.337Z,29.19
2017-08-18T10:07:24.357Z,29.22
2017-08-18T10:08:24.377Z,29.19
2017-08-18T10:09:24.398Z,29.16
2017-08-18T10:10:24.419Z,29.25
2017-08-18T10:11:24.438Z,29.25
2017-08-18T10:12:24.461Z,29.31
2017-08-18T10:13:24.482Z,29.43
2017-08-18T10:14:24.501Z,29.47
2017-08-18T10:15:24.523Z,29.52
2017-08-18T10:16:24.542Z,29.35
2017-08-18T10:17:24.562Z,29.45
2017-08-18T10:18:24.585Z,29.49
2017-08-18T10:19:24.608Z,29.55
2017-08-18T10:20:24.626Z,29.60
2017-08-18T10:21:24.645Z,29.68
2017-08-18T10:22:24.666Z,29.66
2017-08-18T10:23:24.700Z,29.60
2017-08-18T10:24:24.708Z,29.59
2017-08-18T10:25:24.730Z,29.56
2017-08-18T10:26:24.748Z,29.47
2017-08-18T10:27:24.769Z,29.45
2017-08-18T10:28:24.791Z,29.47
2017-08-18T10:29:24.810Z,29.41
2017-08-18T10:30:24.835Z,29.38
2017-08-18T10:31:24.852Z,29.43
2017-08-18T10:32:24.873Z,29.43
2017-08-18T10:33:24.894Z,29.35
2017-08-18T10:34:24.914Z,29.33
2017-08-18T10:35:24.935Z,29.34
2017-08-18T10:36:24.956Z,29.33
2017-08-18T10:37:24.978Z,29.28
2017-08-18T10:38:24.997Z,29.26
2017-08-18T10:39:25.016Z,29.25
2017-08-18T10:40:25.040Z,29.33
2017-08-18T10:41:25.059Z,29.28
2017-08-18T10:42:25.079Z,29.25
2017-08-18T10:43:25.099Z,29.19
2017-08-18T10:44:25.125Z,29.18
2017-08-18T10:45:25.142Z,29.31
2017-08-18T10:46:25.162Z,29.29
2017-08-18T10:47:25.181Z,29.45
2017-08-18T10:48:25.206Z,29.55
2017-08-18T10:49:25.223Z,29.65
2017-08-18T10:50:25.244Z,29.77
2017-08-18T10:51:25.262Z,29.96
2017-08-18T10:52:25.286Z,30.19
2017-08-18T10:53:25.305Z,30.23
2017-08-18T10:54:25.326Z,30.27
2017-08-18T10:55:25.348Z,30.30
2017-08-18T10:56:25.368Z,30.27
2017-08-18T10:57:25.388Z,30.30
2017-08-18T10:58:25.409Z,30.29
2017-08-18T10:59:25.429Z,30.36
2017-08-18T11:00:25.452Z,30.31
2017-08-18T11:01:25.471Z,30.21
2017-08-18T11:02:25.496Z,30.18
2017-08-18T11:03:25.512Z,30.15
2017-08-18T11:04:25.534Z,30.18
2017-08-18T11:05:25.554Z,30.16
2017-08-18T11:06:25.575Z,30.18
2017-08-18T11:07:25.597Z,30.21
2017-08-18T11:08:25.617Z,30.29
2017-08-18T11:09:25.637Z,30.33
2017-08-18T11:10:25.658Z,30.30
2017-08-18T11:11:25.680Z,30.29
2017-08-18T11:12:25.703Z,30.33
2017-08-18T11:13:25.727Z,30.30
2017-08-18T11:14:25.742Z,30.33
2017-08-18T11:15:25.763Z,30.34
2017-08-18T11:16:25.785Z,30.45
2017-08-18T11:17:25.806Z,30.46
2017-08-18T11:18:25.828Z,30.47
2017-08-18T11:19:25.847Z,30.49
2017-08-18T11:20:25.870Z,30.57
2017-08-18T11:21:25.890Z,30.65
2017-08-18T11:22:25.911Z,30.74
2017-08-18T11:23:25.933Z,30.68
2017-08-18T11:24:25.955Z,30.67
2017-08-18T11:25:25.974Z,30.65
2017-08-18T11:26:25.996Z,30.64
2017-08-18T11:27:26.015Z,30.76
2017-08-18T11:28:26.041Z,30.83
2017-08-18T11:29:26.058Z,30.86
2017-08-18T11:30:26.080Z,30.93
2017-08-18T11:31:26.101Z,31.01
2017-08-18T11:32:26.122Z,30.90
2017-08-18T11:33:26.144Z,31.05
2017-08-18T11:34:26.166Z,31.06
2017-08-18T11:35:26.185Z,31.11
2017-08-18T11:36:26.207Z,31.11
2017-08-18T11:37:26.229Z,31.23
2017-08-18T11:38:26.252Z,31.17
2017-08-18T11:39:26.269Z,31.23
2017-08-18T11:40:26.293Z,31.26
2017-08-18T11:41:26.318Z,31.27
2017-08-18T11:42:26.336Z,31.24
2017-08-18T11:43:26.356Z,31.17
2017-08-18T11:44:26.408Z,31.15
2017-08-18T11:45:26.399Z,31.01
2017-08-18T11:46:26.421Z,31.04
2017-08-18T11:47:26.440Z,31.04
2017-08-18T11:48:26.465Z,30.98
2017-08-18T11:49:26.488Z,30.96
2017-08-18T11:50:26.506Z,30.98
2017-08-18T11:51:26.526Z,31.06
2017-08-18T11:52:26.548Z,30.99
2017-08-18T11:53:26.570Z,31.06
2017-08-18T11:54:26.593Z,30.99
2017-08-18T11:55:26.612Z,30.99
2017-08-18T11:56:26.635Z,30.99
2017-08-18T11:57:26.655Z,31.08
2017-08-18T11:58:26.676Z,30.99
2017-08-18T11:59:26.697Z,30.86
2017-08-18T12:00:26.719Z,31.01
2017-08-18T12:01:26.740Z,31.09
2017-08-18T12:02:26.761Z,31.09
2017-08-18T12:03:26.782Z,31.31
2017-08-18T12:04:26.804Z,31.38
2017-08-18T12:05:26.826Z,31.39
2017-08-18T12:06:26.845Z,31.36
2017-08-18T12:07:26.866Z,31.30
2017-08-18T12:08:26.886Z,31.33
2017-08-18T12:09:26.911Z,31.35
2017-08-18T12:10:26.931Z,31.35
2017-08-18T12:11:26.952Z,31.39
2017-08-18T12:12:26.974Z,31.35
2017-08-18T12:13:26.998Z,31.42
2017-08-18T12:14:27.015Z,31.39
2017-08-18T12:15:27.038Z,31.48
2017-08-18T12:16:27.060Z,31.53
2017-08-18T12:17:27.082Z,31.39
2017-08-18T12:18:27.103Z,31.36
2017-08-18T12:19:27.123Z,31.30
2017-08-18T12:20:27.144Z,31.31
2017-08-18T12:21:27.166Z,31.31
2017-08-18T12:22:27.187Z,31.40
2017-08-18T12:23:27.207Z,31.45
2017-08-18T12:24:27.230Z,31.38
2017-08-18T12:25:27.251Z,31.42
2017-08-18T12:26:27.275Z,31.35
2017-08-18T12:27:27.293Z,31.31
2017-08-18T12:28:27.316Z,31.48
2017-08-18T12:29:27.337Z,31.61
2017-08-18T12:30:27.356Z,31.70
2017-08-18T12:31:27.380Z,31.68
2017-08-18T12:32:27.403Z,31.73
2017-08-18T12:33:27.422Z,31.85
2017-08-18T12:34:27.443Z,31.96
2017-08-18T12:35:27.465Z,32.13
2017-08-18T12:36:27.487Z,32.17
2017-08-18T12:37:27.509Z,32.17
2017-08-18T12:38:27.529Z,32.35
2017-08-18T12:39:27.550Z,32.36
2017-08-18T12:40:27.573Z,32.40
2017-08-18T12:41:27.594Z,32.47
2017-08-18T12:42:27.616Z,32.54
2017-08-18T12:43:27.635Z,32.66
2017-08-18T12:44:27.660Z,32.69
2017-08-18T12:45:27.681Z,32.70
2017-08-18T12:46:27.709Z,32.69
2017-08-18T12:47:27.727Z,32.73
2017-08-18T12:48:27.747Z,32.59
2017-08-18T12:49:27.771Z,32.67
2017-08-18T12:50:27.789Z,32.62
2017-08-18T12:51:27.810Z,32.66
2017-08-18T12:52:27.836Z,32.62